カトマンズ の空港の天気 - METARとTAF

トリブバン国際空港 ( VNKT / KTM ) - ネパール カトマンズ
飛行場実況気象(Metar)
観測時間04/04 14:35 NPT (04/04 08:50 UTC)
風向・風速南西 5m/s
視程10km以上
天気現象
少しの雲 雲底高度 610m
全天の4割程度の雲 雲底高度 910m
気温25℃
湿度32%
気圧1016hPa
METARVNKT 040850Z 22009KT 190V250 9999 FEW020 SCT030 25/07 Q1016 NOSIG
過去の天気等 Google飛行場航空写真 Wunderground天気予報

過去48時間のMETAR

飛行場予報(TAF)
発表時間: 4/04 10:45 NPT (4/04 05:00 UTC)
予報対象時間: 4日11時 NPT ~ 5日11時 NPT
風向・風速南南西 2m/s
視程8000m
少しの雲 雲底高度 610m
4日12時 NPT ~ 4日13時 NPT に徐々に
風向・風速西南西 5m/s
少しの雲 雲底高度 760m
4日19時 NPT ~ 4日20時 NPT に徐々に
風向・風速南東 2m/s
視程6000m
少しの雲 雲底高度 610m
5日5時 NPT ~ 5日7時 NPT に徐々に
風向・風速不定 1m/s
視程4000m
天気現象もや
少しの雲 雲底高度 460m
5日9時 NPT ~ 5日10時 NPT に徐々に
風向・風速東南東 2m/s
視程6000m
少しの雲 雲底高度 610m
TAF VNKT 040500Z 0406/0506 20004KT 8000 FEW020
BECMG 0407/0408 25010KT FEW025
BECMG 0414/0415 14004KT 6000 FEW020
BECMG 0500/0502 VRB02KT 4000 BR FEW015
BECMG 0504/0505 12004KT 6000 FEW020